sensor_id;sensor_type;location;lat;lon;timestamp;P1;durP1;ratioP1;P2;durP2;ratioP2
438;SDS011;206;48.782;9.252;2023-02-07T00:00:51;10.70;;;6.50;;
438;SDS011;206;48.782;9.252;2023-02-07T00:03:16;7.70;;;7.30;;
438;SDS011;206;48.782;9.252;2023-02-07T00:05:42;8.53;;;6.30;;
438;SDS011;206;48.782;9.252;2023-02-07T00:08:08;7.87;;;6.70;;
438;SDS011;206;48.782;9.252;2023-02-07T00:10:34;7.20;;;5.47;;
438;SDS011;206;48.782;9.252;2023-02-07T00:12:59;9.60;;;7.50;;
438;SDS011;206;48.782;9.252;2023-02-07T00:15:25;7.63;;;6.30;;
438;SDS011;206;48.782;9.252;2023-02-07T00:17:51;11.13;;;7.07;;
438;SDS011;206;48.782;9.252;2023-02-07T00:20:17;8.33;;;6.83;;
438;SDS011;206;48.782;9.252;2023-02-07T00:22:43;10.63;;;7.50;;
438;SDS011;206;48.782;9.252;2023-02-07T00:25:09;6.93;;;6.53;;
438;SDS011;206;48.782;9.252;2023-02-07T00:27:36;9.73;;;7.57;;
438;SDS011;206;48.782;9.252;2023-02-07T00:30:02;9.33;;;6.03;;
438;SDS011;206;48.782;9.252;2023-02-07T00:32:32;6.60;;;6.23;;
438;SDS011;206;48.782;9.252;2023-02-07T00:35:01;8.47;;;6.80;;
438;SDS011;206;48.782;9.252;2023-02-07T00:37:27;7.60;;;6.10;;
438;SDS011;206;48.782;9.252;2023-02-07T00:39:53;6.70;;;6.20;;
438;SDS011;206;48.782;9.252;2023-02-07T00:42:18;6.07;;;5.23;;
438;SDS011;206;48.782;9.252;2023-02-07T00:44:44;6.20;;;5.50;;
438;SDS011;206;48.782;9.252;2023-02-07T00:47:09;7.00;;;5.67;;
438;SDS011;206;48.782;9.252;2023-02-07T00:49:35;8.40;;;6.80;;
438;SDS011;206;48.782;9.252;2023-02-07T00:52:01;7.43;;;6.30;;
438;SDS011;206;48.782;9.252;2023-02-07T00:54:27;8.93;;;6.63;;
438;SDS011;206;48.782;9.252;2023-02-07T00:56:53;9.03;;;6.70;;
438;SDS011;206;48.782;9.252;2023-02-07T00:59:18;8.37;;;6.90;;
438;SDS011;206;48.782;9.252;2023-02-07T01:01:44;9.00;;;6.90;;
438;SDS011;206;48.782;9.252;2023-02-07T01:04:09;8.50;;;7.73;;
438;SDS011;206;48.782;9.252;2023-02-07T01:06:35;10.37;;;8.03;;
438;SDS011;206;48.782;9.252;2023-02-07T01:09:01;7.97;;;6.43;;
438;SDS011;206;48.782;9.252;2023-02-07T01:11:28;11.88;;;8.40;;
438;SDS011;206;48.782;9.252;2023-02-07T01:13:54;10.13;;;7.67;;
438;SDS011;206;48.782;9.252;2023-02-07T01:18:49;13.48;;;8.32;;
438;SDS011;206;48.782;9.252;2023-02-07T01:21:16;11.53;;;8.50;;
438;SDS011;206;48.782;9.252;2023-02-07T01:23:49;9.82;;;8.50;;
438;SDS011;206;48.782;9.252;2023-02-07T01:26:15;10.73;;;7.80;;
438;SDS011;206;48.782;9.252;2023-02-07T01:28:41;10.65;;;8.07;;
438;SDS011;206;48.782;9.252;2023-02-07T01:31:08;11.97;;;8.40;;
438;SDS011;206;48.782;9.252;2023-02-07T01:33:35;10.40;;;8.63;;
438;SDS011;206;48.782;9.252;2023-02-07T01:36:05;12.13;;;9.98;;
438;SDS011;206;48.782;9.252;2023-02-07T01:38:33;10.10;;;7.78;;
438;SDS011;206;48.782;9.252;2023-02-07T01:40:58;10.23;;;8.65;;
438;SDS011;206;48.782;9.252;2023-02-07T01:43:24;11.10;;;8.63;;
438;SDS011;206;48.782;9.252;2023-02-07T01:45:50;11.13;;;9.53;;
438;SDS011;206;48.782;9.252;2023-02-07T01:48:19;11.43;;;9.90;;
438;SDS011;206;48.782;9.252;2023-02-07T01:50:48;14.65;;;11.30;;
438;SDS011;206;48.782;9.252;2023-02-07T01:53:16;12.60;;;9.50;;
438;SDS011;206;48.782;9.252;2023-02-07T01:55:46;12.02;;;8.68;;
438;SDS011;206;48.782;9.252;2023-02-07T01:58:14;12.50;;;9.68;;
438;SDS011;206;48.782;9.252;2023-02-07T02:00:41;14.05;;;9.73;;
438;SDS011;206;48.782;9.252;2023-02-07T02:03:07;15.63;;;10.23;;
438;SDS011;206;48.782;9.252;2023-02-07T02:05:33;13.53;;;10.63;;
438;SDS011;206;48.782;9.252;2023-02-07T02:08:00;11.17;;;9.00;;
438;SDS011;206;48.782;9.252;2023-02-07T02:10:29;13.70;;;9.70;;
438;SDS011;206;48.782;9.252;2023-02-07T02:22:26;18.83;;;11.80;;
438;SDS011;206;48.782;9.252;2023-02-07T02:25:12;14.57;;;10.65;;
438;SDS011;206;48.782;9.252;2023-02-07T02:31:09;11.85;;;10.55;;
438;SDS011;206;48.782;9.252;2023-02-07T02:39:12;12.80;;;10.73;;
438;SDS011;206;48.782;9.252;2023-02-07T02:41:58;12.18;;;9.50;;
438;SDS011;206;48.782;9.252;2023-02-07T02:44:56;12.10;;;10.60;;
438;SDS011;206;48.782;9.252;2023-02-07T02:47:28;13.98;;;11.25;;
438;SDS011;206;48.782;9.252;2023-02-07T02:49:56;11.10;;;9.53;;
438;SDS011;206;48.782;9.252;2023-02-07T02:52:23;15.10;;;10.20;;
438;SDS011;206;48.782;9.252;2023-02-07T02:54:50;16.33;;;10.93;;
438;SDS011;206;48.782;9.252;2023-02-07T02:57:26;12.37;;;11.30;;
438;SDS011;206;48.782;9.252;2023-02-07T03:08:06;15.82;;;12.07;;
438;SDS011;206;48.782;9.252;2023-02-07T03:13:25;13.07;;;10.27;;
438;SDS011;206;48.782;9.252;2023-02-07T03:16:02;14.23;;;11.10;;
438;SDS011;206;48.782;9.252;2023-02-07T03:19:02;10.95;;;10.27;;
438;SDS011;206;48.782;9.252;2023-02-07T03:24:06;13.15;;;11.30;;
438;SDS011;206;48.782;9.252;2023-02-07T03:26:37;13.82;;;11.88;;
438;SDS011;206;48.782;9.252;2023-02-07T03:29:03;17.93;;;11.80;;
438;SDS011;206;48.782;9.252;2023-02-07T03:31:30;16.08;;;11.88;;
438;SDS011;206;48.782;9.252;2023-02-07T03:34:00;12.93;;;10.50;;
438;SDS011;206;48.782;9.252;2023-02-07T03:36:38;16.08;;;11.65;;
438;SDS011;206;48.782;9.252;2023-02-07T03:39:10;14.82;;;12.10;;
438;SDS011;206;48.782;9.252;2023-02-07T03:41:43;18.27;;;12.97;;
438;SDS011;206;48.782;9.252;2023-02-07T03:44:13;16.08;;;12.25;;
438;SDS011;206;48.782;9.252;2023-02-07T03:46:40;16.13;;;12.05;;
438;SDS011;206;48.782;9.252;2023-02-07T03:49:06;18.37;;;13.90;;
438;SDS011;206;48.782;9.252;2023-02-07T03:51:32;14.00;;;13.30;;
438;SDS011;206;48.782;9.252;2023-02-07T03:53:59;14.97;;;13.47;;
438;SDS011;206;48.782;9.252;2023-02-07T03:56:24;14.97;;;12.93;;
438;SDS011;206;48.782;9.252;2023-02-07T03:58:50;15.30;;;12.77;;
438;SDS011;206;48.782;9.252;2023-02-07T04:01:16;14.20;;;11.10;;
438;SDS011;206;48.782;9.252;2023-02-07T04:03:41;14.47;;;11.70;;
438;SDS011;206;48.782;9.252;2023-02-07T04:06:07;14.53;;;11.23;;
438;SDS011;206;48.782;9.252;2023-02-07T04:08:32;18.60;;;13.13;;
438;SDS011;206;48.782;9.252;2023-02-07T04:10:59;18.63;;;13.10;;
438;SDS011;206;48.782;9.252;2023-02-07T04:13:25;17.67;;;12.88;;
438;SDS011;206;48.782;9.252;2023-02-07T04:15:51;16.92;;;13.38;;
438;SDS011;206;48.782;9.252;2023-02-07T04:18:17;18.57;;;13.00;;
438;SDS011;206;48.782;9.252;2023-02-07T04:20:43;15.50;;;12.47;;
438;SDS011;206;48.782;9.252;2023-02-07T04:23:08;14.03;;;12.23;;
438;SDS011;206;48.782;9.252;2023-02-07T04:25:34;16.30;;;12.60;;
438;SDS011;206;48.782;9.252;2023-02-07T04:27:59;16.80;;;14.17;;
438;SDS011;206;48.782;9.252;2023-02-07T04:30:25;14.80;;;12.87;;
438;SDS011;206;48.782;9.252;2023-02-07T04:32:51;17.97;;;13.23;;
438;SDS011;206;48.782;9.252;2023-02-07T04:35:16;16.03;;;12.30;;
438;SDS011;206;48.782;9.252;2023-02-07T04:37:42;14.97;;;12.37;;
438;SDS011;206;48.782;9.252;2023-02-07T04:40:07;16.80;;;12.27;;
438;SDS011;206;48.782;9.252;2023-02-07T04:42:34;14.38;;;11.30;;
438;SDS011;206;48.782;9.252;2023-02-07T04:44:59;15.00;;;11.63;;
438;SDS011;206;48.782;9.252;2023-02-07T04:47:25;19.60;;;12.03;;
438;SDS011;206;48.782;9.252;2023-02-07T04:49:50;16.20;;;12.17;;
438;SDS011;206;48.782;9.252;2023-02-07T04:52:16;14.93;;;12.37;;
438;SDS011;206;48.782;9.252;2023-02-07T04:54:41;17.83;;;13.40;;
438;SDS011;206;48.782;9.252;2023-02-07T04:57:07;16.97;;;12.40;;
438;SDS011;206;48.782;9.252;2023-02-07T04:59:33;16.10;;;12.77;;
438;SDS011;206;48.782;9.252;2023-02-07T05:01:58;15.60;;;10.40;;
438;SDS011;206;48.782;9.252;2023-02-07T05:04:24;16.33;;;12.00;;
438;SDS011;206;48.782;9.252;2023-02-07T05:06:49;13.03;;;11.57;;
438;SDS011;206;48.782;9.252;2023-02-07T05:09:15;16.73;;;13.23;;
438;SDS011;206;48.782;9.252;2023-02-07T05:11:41;13.17;;;11.77;;
438;SDS011;206;48.782;9.252;2023-02-07T05:14:06;14.37;;;11.67;;
438;SDS011;206;48.782;9.252;2023-02-07T05:16:32;11.03;;;9.93;;
438;SDS011;206;48.782;9.252;2023-02-07T05:18:58;12.87;;;9.90;;
438;SDS011;206;48.782;9.252;2023-02-07T05:21:23;11.60;;;9.17;;
438;SDS011;206;48.782;9.252;2023-02-07T05:23:49;13.57;;;9.50;;
438;SDS011;206;48.782;9.252;2023-02-07T05:26:14;13.90;;;9.17;;
438;SDS011;206;48.782;9.252;2023-02-07T05:28:41;11.77;;;9.40;;
438;SDS011;206;48.782;9.252;2023-02-07T05:31:07;17.45;;;11.15;;
438;SDS011;206;48.782;9.252;2023-02-07T05:33:33;14.87;;;10.30;;
438;SDS011;206;48.782;9.252;2023-02-07T05:35:59;12.33;;;9.57;;
438;SDS011;206;48.782;9.252;2023-02-07T05:38:25;12.63;;;9.75;;
438;SDS011;206;48.782;9.252;2023-02-07T05:40:51;17.27;;;10.90;;
438;SDS011;206;48.782;9.252;2023-02-07T05:43:17;11.73;;;10.33;;
438;SDS011;206;48.782;9.252;2023-02-07T05:45:42;10.43;;;9.90;;
438;SDS011;206;48.782;9.252;2023-02-07T05:48:09;14.73;;;11.52;;
438;SDS011;206;48.782;9.252;2023-02-07T05:50:36;19.58;;;10.80;;
438;SDS011;206;48.782;9.252;2023-02-07T05:53:02;15.75;;;10.90;;
438;SDS011;206;48.782;9.252;2023-02-07T05:55:28;15.02;;;12.15;;
438;SDS011;206;48.782;9.252;2023-02-07T05:57:54;14.97;;;11.00;;
438;SDS011;206;48.782;9.252;2023-02-07T06:00:20;15.10;;;9.93;;
438;SDS011;206;48.782;9.252;2023-02-07T06:02:46;12.27;;;8.63;;
438;SDS011;206;48.782;9.252;2023-02-07T06:05:13;11.90;;;9.47;;
438;SDS011;206;48.782;9.252;2023-02-07T06:07:41;11.93;;;8.18;;
438;SDS011;206;48.782;9.252;2023-02-07T06:10:08;9.80;;;7.22;;
438;SDS011;206;48.782;9.252;2023-02-07T06:12:34;8.15;;;5.97;;
438;SDS011;206;48.782;9.252;2023-02-07T06:15:00;9.57;;;6.93;;
438;SDS011;206;48.782;9.252;2023-02-07T06:17:26;13.93;;;7.77;;
438;SDS011;206;48.782;9.252;2023-02-07T06:19:51;8.07;;;7.60;;
438;SDS011;206;48.782;9.252;2023-02-07T06:22:17;10.73;;;7.40;;
438;SDS011;206;48.782;9.252;2023-02-07T06:24:43;9.77;;;7.20;;
438;SDS011;206;48.782;9.252;2023-02-07T06:27:08;7.40;;;7.03;;
438;SDS011;206;48.782;9.252;2023-02-07T06:29:34;11.90;;;7.70;;
438;SDS011;206;48.782;9.252;2023-02-07T06:32:00;11.60;;;7.10;;
438;SDS011;206;48.782;9.252;2023-02-07T06:34:26;8.73;;;7.63;;
438;SDS011;206;48.782;9.252;2023-02-07T06:36:51;14.33;;;8.07;;
438;SDS011;206;48.782;9.252;2023-02-07T06:39:17;7.53;;;6.13;;
438;SDS011;206;48.782;9.252;2023-02-07T06:41:42;8.07;;;7.17;;
438;SDS011;206;48.782;9.252;2023-02-07T06:44:08;12.10;;;8.67;;
438;SDS011;206;48.782;9.252;2023-02-07T06:46:33;7.33;;;6.93;;
438;SDS011;206;48.782;9.252;2023-02-07T06:48:59;8.80;;;7.63;;
438;SDS011;206;48.782;9.252;2023-02-07T06:51:25;10.47;;;8.20;;
438;SDS011;206;48.782;9.252;2023-02-07T06:53:50;8.63;;;7.07;;
438;SDS011;206;48.782;9.252;2023-02-07T06:56:16;12.70;;;9.57;;
438;SDS011;206;48.782;9.252;2023-02-07T06:58:41;10.00;;;8.90;;
438;SDS011;206;48.782;9.252;2023-02-07T07:01:07;11.27;;;8.73;;
438;SDS011;206;48.782;9.252;2023-02-07T07:03:33;10.50;;;7.23;;
438;SDS011;206;48.782;9.252;2023-02-07T07:05:58;9.50;;;6.97;;
438;SDS011;206;48.782;9.252;2023-02-07T07:08:25;10.93;;;8.80;;
438;SDS011;206;48.782;9.252;2023-02-07T07:10:52;10.30;;;7.95;;
438;SDS011;206;48.782;9.252;2023-02-07T07:13:18;10.40;;;8.60;;
438;SDS011;206;48.782;9.252;2023-02-07T07:15:44;13.35;;;8.25;;
438;SDS011;206;48.782;9.252;2023-02-07T07:18:10;9.93;;;8.57;;
438;SDS011;206;48.782;9.252;2023-02-07T07:20:36;13.27;;;9.50;;
438;SDS011;206;48.782;9.252;2023-02-07T07:23:02;16.77;;;9.30;;
438;SDS011;206;48.782;9.252;2023-02-07T07:25:27;10.27;;;9.20;;
438;SDS011;206;48.782;9.252;2023-02-07T07:27:53;8.60;;;7.13;;
438;SDS011;206;48.782;9.252;2023-02-07T07:30:18;10.13;;;8.53;;
438;SDS011;206;48.782;9.252;2023-02-07T07:32:45;8.73;;;7.47;;
438;SDS011;206;48.782;9.252;2023-02-07T07:35:11;11.20;;;7.73;;
438;SDS011;206;48.782;9.252;2023-02-07T07:37:37;12.90;;;10.30;;
438;SDS011;206;48.782;9.252;2023-02-07T07:40:02;12.10;;;10.00;;
438;SDS011;206;48.782;9.252;2023-02-07T07:42:28;16.42;;;12.40;;
438;SDS011;206;48.782;9.252;2023-02-07T07:44:54;18.30;;;13.37;;
438;SDS011;206;48.782;9.252;2023-02-07T07:47:19;16.03;;;13.90;;
438;SDS011;206;48.782;9.252;2023-02-07T07:49:45;16.93;;;11.23;;
438;SDS011;206;48.782;9.252;2023-02-07T07:52:11;15.63;;;10.00;;
438;SDS011;206;48.782;9.252;2023-02-07T07:54:36;14.77;;;10.87;;
438;SDS011;206;48.782;9.252;2023-02-07T07:57:02;11.17;;;9.17;;
438;SDS011;206;48.782;9.252;2023-02-07T07:59:27;13.20;;;9.90;;
438;SDS011;206;48.782;9.252;2023-02-07T08:01:53;14.67;;;11.67;;
438;SDS011;206;48.782;9.252;2023-02-07T08:04:19;12.50;;;11.33;;
438;SDS011;206;48.782;9.252;2023-02-07T08:06:44;16.27;;;10.90;;
438;SDS011;206;48.782;9.252;2023-02-07T08:09:10;17.70;;;12.37;;
438;SDS011;206;48.782;9.252;2023-02-07T08:11:35;14.30;;;10.87;;
438;SDS011;206;48.782;9.252;2023-02-07T08:14:01;12.27;;;10.27;;
438;SDS011;206;48.782;9.252;2023-02-07T08:16:27;12.20;;;9.63;;
438;SDS011;206;48.782;9.252;2023-02-07T08:18:53;11.47;;;9.33;;
438;SDS011;206;48.782;9.252;2023-02-07T08:21:18;12.30;;;9.17;;
438;SDS011;206;48.782;9.252;2023-02-07T08:23:44;10.90;;;9.23;;
438;SDS011;206;48.782;9.252;2023-02-07T08:26:10;13.87;;;8.73;;
438;SDS011;206;48.782;9.252;2023-02-07T08:28:36;15.20;;;9.03;;
438;SDS011;206;48.782;9.252;2023-02-07T08:31:03;12.27;;;9.90;;
438;SDS011;206;48.782;9.252;2023-02-07T08:33:29;12.35;;;10.13;;
438;SDS011;206;48.782;9.252;2023-02-07T08:35:55;12.20;;;9.53;;
438;SDS011;206;48.782;9.252;2023-02-07T08:38:22;10.43;;;8.97;;
438;SDS011;206;48.782;9.252;2023-02-07T08:40:48;9.23;;;7.53;;
438;SDS011;206;48.782;9.252;2023-02-07T08:43:14;11.33;;;8.93;;
438;SDS011;206;48.782;9.252;2023-02-07T08:45:40;18.40;;;7.73;;
438;SDS011;206;48.782;9.252;2023-02-07T08:48:09;11.02;;;8.40;;
438;SDS011;206;48.782;9.252;2023-02-07T08:50:35;17.00;;;9.95;;
438;SDS011;206;48.782;9.252;2023-02-07T08:53:00;10.60;;;8.00;;
438;SDS011;206;48.782;9.252;2023-02-07T08:55:26;13.27;;;9.33;;
438;SDS011;206;48.782;9.252;2023-02-07T08:57:52;13.40;;;8.03;;
438;SDS011;206;48.782;9.252;2023-02-07T09:00:17;13.03;;;8.93;;
438;SDS011;206;48.782;9.252;2023-02-07T09:02:43;11.20;;;7.77;;
438;SDS011;206;48.782;9.252;2023-02-07T09:05:09;8.50;;;6.90;;
438;SDS011;206;48.782;9.252;2023-02-07T09:07:35;10.70;;;8.02;;
438;SDS011;206;48.782;9.252;2023-02-07T09:10:01;11.80;;;8.47;;
438;SDS011;206;48.782;9.252;2023-02-07T09:12:28;9.70;;;8.20;;
438;SDS011;206;48.782;9.252;2023-02-07T09:14:55;8.48;;;8.02;;
438;SDS011;206;48.782;9.252;2023-02-07T09:17:20;10.67;;;8.53;;
438;SDS011;206;48.782;9.252;2023-02-07T09:19:46;21.83;;;9.60;;
438;SDS011;206;48.782;9.252;2023-02-07T09:22:12;8.90;;;8.13;;
438;SDS011;206;48.782;9.252;2023-02-07T09:24:37;11.63;;;9.53;;
438;SDS011;206;48.782;9.252;2023-02-07T09:27:03;10.20;;;8.23;;
438;SDS011;206;48.782;9.252;2023-02-07T09:29:28;9.40;;;7.80;;
438;SDS011;206;48.782;9.252;2023-02-07T09:31:54;22.90;;;9.40;;
438;SDS011;206;48.782;9.252;2023-02-07T09:34:20;11.87;;;8.27;;
438;SDS011;206;48.782;9.252;2023-02-07T09:36:46;9.95;;;8.35;;
438;SDS011;206;48.782;9.252;2023-02-07T09:39:13;12.85;;;8.60;;
438;SDS011;206;48.782;9.252;2023-02-07T09:47:14;13.03;;;8.93;;
438;SDS011;206;48.782;9.252;2023-02-07T09:54:55;12.17;;;9.13;;
438;SDS011;206;48.782;9.252;2023-02-07T09:57:29;11.87;;;8.57;;
438;SDS011;206;48.782;9.252;2023-02-07T10:05:06;9.57;;;7.50;;
438;SDS011;206;48.782;9.252;2023-02-07T10:07:52;8.63;;;7.30;;
438;SDS011;206;48.782;9.252;2023-02-07T10:10:22;13.10;;;7.37;;
438;SDS011;206;48.782;9.252;2023-02-07T10:15:56;9.87;;;7.60;;
438;SDS011;206;48.782;9.252;2023-02-07T10:21:26;10.43;;;8.67;;
438;SDS011;206;48.782;9.252;2023-02-07T10:26:52;9.00;;;8.50;;
438;SDS011;206;48.782;9.252;2023-02-07T10:32:25;11.80;;;9.23;;
438;SDS011;206;48.782;9.252;2023-02-07T10:34:54;8.80;;;7.33;;
438;SDS011;206;48.782;9.252;2023-02-07T10:37:23;12.50;;;8.43;;
438;SDS011;206;48.782;9.252;2023-02-07T10:39:59;12.57;;;9.20;;
438;SDS011;206;48.782;9.252;2023-02-07T10:42:46;12.30;;;8.17;;
438;SDS011;206;48.782;9.252;2023-02-07T10:45:16;9.07;;;7.20;;
438;SDS011;206;48.782;9.252;2023-02-07T10:47:43;10.07;;;8.53;;
438;SDS011;206;48.782;9.252;2023-02-07T10:50:16;12.23;;;8.80;;
438;SDS011;206;48.782;9.252;2023-02-07T10:52:48;7.87;;;7.47;;
438;SDS011;206;48.782;9.252;2023-02-07T10:55:17;12.40;;;8.50;;
438;SDS011;206;48.782;9.252;2023-02-07T10:57:57;10.73;;;8.53;;
438;SDS011;206;48.782;9.252;2023-02-07T11:00:25;7.83;;;7.27;;
438;SDS011;206;48.782;9.252;2023-02-07T11:02:52;10.00;;;8.27;;
438;SDS011;206;48.782;9.252;2023-02-07T11:10:22;9.73;;;7.80;;
438;SDS011;206;48.782;9.252;2023-02-07T11:12:54;9.97;;;8.03;;
438;SDS011;206;48.782;9.252;2023-02-07T11:15:23;10.87;;;8.27;;
438;SDS011;206;48.782;9.252;2023-02-07T11:17:56;11.13;;;7.47;;
438;SDS011;206;48.782;9.252;2023-02-07T11:20:33;10.80;;;7.83;;
438;SDS011;206;48.782;9.252;2023-02-07T11:23:04;9.97;;;8.53;;
438;SDS011;206;48.782;9.252;2023-02-07T11:25:36;9.40;;;7.47;;
438;SDS011;206;48.782;9.252;2023-02-07T11:28:04;7.90;;;7.50;;
438;SDS011;206;48.782;9.252;2023-02-07T11:30:32;10.43;;;8.57;;
438;SDS011;206;48.782;9.252;2023-02-07T11:33:01;9.93;;;8.20;;
438;SDS011;206;48.782;9.252;2023-02-07T11:35:38;9.40;;;7.20;;
438;SDS011;206;48.782;9.252;2023-02-07T11:38:13;7.63;;;7.23;;
438;SDS011;206;48.782;9.252;2023-02-07T11:45:33;9.93;;;8.50;;
438;SDS011;206;48.782;9.252;2023-02-07T11:48:00;9.97;;;7.50;;
438;SDS011;206;48.782;9.252;2023-02-07T11:50:28;10.23;;;7.97;;
438;SDS011;206;48.782;9.252;2023-02-07T11:52:58;8.63;;;7.03;;
438;SDS011;206;48.782;9.252;2023-02-07T11:55:25;11.63;;;7.90;;
438;SDS011;206;48.782;9.252;2023-02-07T11:57:58;6.87;;;6.50;;
438;SDS011;206;48.782;9.252;2023-02-07T12:00:38;9.90;;;7.40;;
438;SDS011;206;48.782;9.252;2023-02-07T12:03:06;9.70;;;7.77;;
438;SDS011;206;48.782;9.252;2023-02-07T12:05:42;14.03;;;10.77;;
438;SDS011;206;48.782;9.252;2023-02-07T12:08:15;9.63;;;7.90;;
438;SDS011;206;48.782;9.252;2023-02-07T12:10:46;9.27;;;6.60;;
438;SDS011;206;48.782;9.252;2023-02-07T12:13:19;7.80;;;7.40;;
438;SDS011;206;48.782;9.252;2023-02-07T12:15:51;10.07;;;7.43;;
438;SDS011;206;48.782;9.252;2023-02-07T12:24:14;5.87;;;5.57;;
438;SDS011;206;48.782;9.252;2023-02-07T12:40:50;8.43;;;6.47;;
438;SDS011;206;48.782;9.252;2023-02-07T12:43:21;11.93;;;6.07;;
438;SDS011;206;48.782;9.252;2023-02-07T12:54:26;9.50;;;6.20;;
438;SDS011;206;48.782;9.252;2023-02-07T12:56:57;7.90;;;6.77;;
438;SDS011;206;48.782;9.252;2023-02-07T12:59:30;9.40;;;7.17;;
438;SDS011;206;48.782;9.252;2023-02-07T13:05:40;7.77;;;6.30;;
438;SDS011;206;48.782;9.252;2023-02-07T13:08:02;10.07;;;6.47;;
438;SDS011;206;48.782;9.252;2023-02-07T13:19:29;8.33;;;5.93;;
438;SDS011;206;48.782;9.252;2023-02-07T13:22:09;8.07;;;6.80;;
438;SDS011;206;48.782;9.252;2023-02-07T13:25:00;8.47;;;7.63;;
438;SDS011;206;48.782;9.252;2023-02-07T13:27:31;9.57;;;7.57;;
438;SDS011;206;48.782;9.252;2023-02-07T13:30:00;15.50;;;7.53;;
438;SDS011;206;48.782;9.252;2023-02-07T13:32:27;8.83;;;7.23;;
438;SDS011;206;48.782;9.252;2023-02-07T13:34:57;6.20;;;5.47;;
438;SDS011;206;48.782;9.252;2023-02-07T13:40:25;7.30;;;6.47;;
438;SDS011;206;48.782;9.252;2023-02-07T13:43:17;8.90;;;7.00;;
438;SDS011;206;48.782;9.252;2023-02-07T13:48:45;7.90;;;7.40;;
438;SDS011;206;48.782;9.252;2023-02-07T13:54:40;9.97;;;6.17;;
438;SDS011;206;48.782;9.252;2023-02-07T13:57:20;8.37;;;6.80;;
438;SDS011;206;48.782;9.252;2023-02-07T14:00:22;6.20;;;5.23;;
438;SDS011;206;48.782;9.252;2023-02-07T14:03:05;7.53;;;5.93;;
438;SDS011;206;48.782;9.252;2023-02-07T14:07:59;9.43;;;7.63;;
438;SDS011;206;48.782;9.252;2023-02-07T14:10:33;10.90;;;7.87;;
438;SDS011;206;48.782;9.252;2023-02-07T14:13:18;9.53;;;7.10;;
438;SDS011;206;48.782;9.252;2023-02-07T14:18:45;9.77;;;6.93;;
438;SDS011;206;48.782;9.252;2023-02-07T14:31:50;6.33;;;5.67;;
438;SDS011;206;48.782;9.252;2023-02-07T14:34:20;6.33;;;6.00;;
438;SDS011;206;48.782;9.252;2023-02-07T14:36:48;9.60;;;5.97;;
438;SDS011;206;48.782;9.252;2023-02-07T14:41:45;7.50;;;6.20;;
438;SDS011;206;48.782;9.252;2023-02-07T14:46:53;6.70;;;5.90;;
438;SDS011;206;48.782;9.252;2023-02-07T14:51:59;7.13;;;5.10;;
438;SDS011;206;48.782;9.252;2023-02-07T14:54:29;6.13;;;5.63;;
438;SDS011;206;48.782;9.252;2023-02-07T14:57:03;8.00;;;5.60;;
438;SDS011;206;48.782;9.252;2023-02-07T14:59:41;9.00;;;5.40;;
438;SDS011;206;48.782;9.252;2023-02-07T15:07:46;7.70;;;5.60;;
438;SDS011;206;48.782;9.252;2023-02-07T15:10:13;15.37;;;4.90;;
438;SDS011;206;48.782;9.252;2023-02-07T15:12:50;6.03;;;5.20;;
438;SDS011;206;48.782;9.252;2023-02-07T15:15:17;7.13;;;4.70;;
438;SDS011;206;48.782;9.252;2023-02-07T15:18:03;5.90;;;4.50;;
438;SDS011;206;48.782;9.252;2023-02-07T15:20:31;6.00;;;4.97;;
438;SDS011;206;48.782;9.252;2023-02-07T15:22:59;6.53;;;5.23;;
438;SDS011;206;48.782;9.252;2023-02-07T15:25:27;6.40;;;4.83;;
438;SDS011;206;48.782;9.252;2023-02-07T15:27:58;4.73;;;4.03;;
438;SDS011;206;48.782;9.252;2023-02-07T15:30:25;6.33;;;5.10;;
438;SDS011;206;48.782;9.252;2023-02-07T15:32:51;12.30;;;5.80;;
438;SDS011;206;48.782;9.252;2023-02-07T15:35:21;5.17;;;4.60;;
438;SDS011;206;48.782;9.252;2023-02-07T15:37:51;5.30;;;4.63;;
438;SDS011;206;48.782;9.252;2023-02-07T15:40:19;6.10;;;4.80;;
438;SDS011;206;48.782;9.252;2023-02-07T15:42:50;4.43;;;4.07;;
438;SDS011;206;48.782;9.252;2023-02-07T15:45:27;7.63;;;4.80;;
438;SDS011;206;48.782;9.252;2023-02-07T15:47:58;4.90;;;4.17;;
438;SDS011;206;48.782;9.252;2023-02-07T15:50:38;4.77;;;4.30;;
438;SDS011;206;48.782;9.252;2023-02-07T15:53:04;5.00;;;4.33;;
438;SDS011;206;48.782;9.252;2023-02-07T15:55:42;5.47;;;4.40;;
438;SDS011;206;48.782;9.252;2023-02-07T15:58:17;6.43;;;4.60;;
438;SDS011;206;48.782;9.252;2023-02-07T16:00:48;5.90;;;4.57;;
438;SDS011;206;48.782;9.252;2023-02-07T16:03:20;9.67;;;5.50;;
438;SDS011;206;48.782;9.252;2023-02-07T16:06:00;5.67;;;4.20;;
438;SDS011;206;48.782;9.252;2023-02-07T16:08:31;6.80;;;4.50;;
438;SDS011;206;48.782;9.252;2023-02-07T16:16:40;8.60;;;4.70;;
438;SDS011;206;48.782;9.252;2023-02-07T16:21:38;6.63;;;4.90;;
438;SDS011;206;48.782;9.252;2023-02-07T16:24:06;9.43;;;5.67;;
438;SDS011;206;48.782;9.252;2023-02-07T16:26:38;9.60;;;6.13;;
438;SDS011;206;48.782;9.252;2023-02-07T16:29:04;7.80;;;5.57;;
438;SDS011;206;48.782;9.252;2023-02-07T16:31:31;8.80;;;5.87;;
438;SDS011;206;48.782;9.252;2023-02-07T16:33:57;9.27;;;7.17;;
438;SDS011;206;48.782;9.252;2023-02-07T16:36:22;8.83;;;6.40;;
438;SDS011;206;48.782;9.252;2023-02-07T16:38:49;10.13;;;6.07;;
438;SDS011;206;48.782;9.252;2023-02-07T16:41:34;7.90;;;5.90;;
438;SDS011;206;48.782;9.252;2023-02-07T16:44:05;9.40;;;6.27;;
438;SDS011;206;48.782;9.252;2023-02-07T16:46:35;10.93;;;6.67;;
438;SDS011;206;48.782;9.252;2023-02-07T16:49:04;9.03;;;5.97;;
438;SDS011;206;48.782;9.252;2023-02-07T16:51:37;8.93;;;5.50;;
438;SDS011;206;48.782;9.252;2023-02-07T16:54:02;8.30;;;6.50;;
438;SDS011;206;48.782;9.252;2023-02-07T16:56:28;8.93;;;5.70;;
438;SDS011;206;48.782;9.252;2023-02-07T16:58:53;12.30;;;6.27;;
438;SDS011;206;48.782;9.252;2023-02-07T17:01:19;9.30;;;6.83;;
438;SDS011;206;48.782;9.252;2023-02-07T17:03:46;9.70;;;5.80;;
438;SDS011;206;48.782;9.252;2023-02-07T17:06:12;8.87;;;6.67;;
438;SDS011;206;48.782;9.252;2023-02-07T17:08:42;9.00;;;7.03;;
438;SDS011;206;48.782;9.252;2023-02-07T17:11:11;8.83;;;6.53;;
438;SDS011;206;48.782;9.252;2023-02-07T17:13:39;7.40;;;5.70;;
438;SDS011;206;48.782;9.252;2023-02-07T17:16:08;7.30;;;5.87;;
438;SDS011;206;48.782;9.252;2023-02-07T17:18:36;8.60;;;5.40;;
438;SDS011;206;48.782;9.252;2023-02-07T17:21:02;7.30;;;5.53;;
438;SDS011;206;48.782;9.252;2023-02-07T17:23:27;7.47;;;6.20;;
438;SDS011;206;48.782;9.252;2023-02-07T17:25:53;7.07;;;5.40;;
438;SDS011;206;48.782;9.252;2023-02-07T17:28:20;8.57;;;6.20;;
438;SDS011;206;48.782;9.252;2023-02-07T17:30:45;7.07;;;6.40;;
438;SDS011;206;48.782;9.252;2023-02-07T17:33:11;9.20;;;6.60;;
438;SDS011;206;48.782;9.252;2023-02-07T17:35:37;11.43;;;5.60;;
438;SDS011;206;48.782;9.252;2023-02-07T17:38:04;7.67;;;6.13;;
438;SDS011;206;48.782;9.252;2023-02-07T17:40:34;9.43;;;6.00;;
438;SDS011;206;48.782;9.252;2023-02-07T17:43:01;7.70;;;5.83;;
438;SDS011;206;48.782;9.252;2023-02-07T17:45:29;8.90;;;6.20;;
438;SDS011;206;48.782;9.252;2023-02-07T17:47:57;8.90;;;5.90;;
438;SDS011;206;48.782;9.252;2023-02-07T17:50:25;8.07;;;6.43;;
438;SDS011;206;48.782;9.252;2023-02-07T17:52:51;8.97;;;5.80;;
438;SDS011;206;48.782;9.252;2023-02-07T17:55:17;9.50;;;6.60;;
438;SDS011;206;48.782;9.252;2023-02-07T17:57:43;7.40;;;5.77;;
438;SDS011;206;48.782;9.252;2023-02-07T18:00:28;12.90;;;5.90;;
438;SDS011;206;48.782;9.252;2023-02-07T18:02:55;7.37;;;6.07;;
438;SDS011;206;48.782;9.252;2023-02-07T18:05:21;9.33;;;6.40;;
438;SDS011;206;48.782;9.252;2023-02-07T18:07:47;7.63;;;6.43;;
438;SDS011;206;48.782;9.252;2023-02-07T18:10:16;8.60;;;6.07;;
438;SDS011;206;48.782;9.252;2023-02-07T18:12:43;9.20;;;6.43;;
438;SDS011;206;48.782;9.252;2023-02-07T18:15:09;9.50;;;6.70;;
438;SDS011;206;48.782;9.252;2023-02-07T18:17:35;17.00;;;8.90;;
438;SDS011;206;48.782;9.252;2023-02-07T18:20:03;8.13;;;5.55;;
438;SDS011;206;48.782;9.252;2023-02-07T18:22:29;9.80;;;6.73;;